Grand Mesa, Colorado
Current Conditions -  °F | °C
As of 2:55 PM on Thursday 23 Oct 2014 (Local Time) from KAJZ Reporting Station
Clear Clear  
Wind Chill: 75°   Ceiling: Unl
Heat Index: 75°   Visibility: 10mi
Dew Point: 33°   Wind: 0mph
Humidity: 22%   Direction: NA
Pressure: 30.19"   Gusts: NA
Location:  38.9793°N, 107.894°W
Report Text: KAJZ 232055Z AUTO 00000KT 10SM CLR 24/01 A3019 RMK AO2 T02370006
Loading
Personal Weather Stations






























Interactive Weather Map
Tropical Storm Tracking
New forecast layout! Learn more

10-Day Weather Forecast

Advertisements
Track Severe Weather on mobile